Terminal Aerodrome Forecast
Issued by NWS

Home | Current Version | Previous Version | Text Only | Print | Product List | Glossary On
Versions: 1 2 3 4 5 6 7 8 9 10 11 12 13 14 15 16 17 18 19 20 21 22 23 24 25 26 27 28 29 30 31 32 33 34 35 36 37 38 39 40 41 42 43 44 45 46 47 48 49 50
000
FTUS42 KJAX 181923 AAB
TAFVQQ
TAF AMD
KVQQ 181923Z 1819/1918 20006KT P6SM VCTS BKN040CB BKN250
      TEMPO 1819/1823 VRB15G25KT 3SM TSRA OVC035CB
     FM190200 24004KT P6SM SCT040 SCT250=

USA.gov is the U.S. government's official web portal to all federal, state and local government web resources and services.